Johannesburg, South Africa
Current Conditions -  °F | °C
As of 9:30 AM on Sunday 23 Nov 2014 (Local Time) from FAOR Reporting Station
Light Rain Light Rain  
Wind Chill: 63°   Ceiling: 2100
Heat Index: 63°   Visibility: 6mi
Dew Point: 55°   Wind: 10mph
Humidity: 77%   Direction: 320°NW
Pressure: 30.33"   Gusts: NA
Location:  26.19°S, 28.04°E
Report Text: FAOR 230730Z 32009KT 260V340 9999 -RA BKN021 17/13 Q1027 BECMG 5000 SHRA BKN010
Loading
Personal Weather Stations






























Interactive Weather Map New forecast layout! Learn more

10-Day Weather Forecast

Advertisements
Track Severe Weather on mobile